Time;durP1;ratioP1;P1;durP2;ratioP2;P2;SDS_P1;SDS_P2;PMS_P1;PMS_P2;Temp;Humidity;BMP_temperature;BMP_pressure;BME280_temperature;BME280_humidity;BME280_pressure;Samples;Min_cycle;Max_cycle;Signal;HPM_P1;HPM_P2
2022/10/13 00:03:23;;;;;;;12.85;6.30;;;;;;;5.41;92.50;99040.06;1819588;77;21006;-59
2022/10/13 00:05:51;;;;;;;13.65;6.45;;;;;;;5.33;92.50;99033.23;1835225;77;21890;-60
2022/10/13 00:08:20;;;;;;;10.68;6.40;;;;;;;5.27;92.59;99038.67;1828730;77;21404;-60
2022/10/13 00:10:49;;;;;;;12.23;6.53;;;;;;;5.23;92.99;99038.31;1841195;77;21388;-58
2022/10/13 00:13:18;;;;;;;10.82;6.28;;;;;;;5.27;93.17;99038.67;1836019;77;20935;-58
2022/10/13 00:15:45;;;;;;;12.28;6.20;;;;;;;5.29;93.19;99036.08;1833853;77;20964;-59
2022/10/13 00:18:14;;;;;;;17.82;6.47;;;;;;;5.31;93.20;99037.98;1821264;77;20908;-59
2022/10/13 00:23:19;;;;;;;10.32;6.17;;;;;;;5.25;92.92;99034.90;1815902;77;20931;-59
2022/10/13 00:25:48;;;;;;;12.93;6.05;;;;;;;5.21;92.89;99035.08;1825726;77;21384;-59
2022/10/13 00:28:16;;;;;;;13.62;6.03;;;;;;;5.20;92.84;99030.83;1835024;77;21356;-58
2022/10/13 00:30:44;;;;;;;13.08;6.17;;;;;;;5.17;92.73;99033.93;1829241;77;21085;-59
2022/10/13 00:33:11;;;;;;;12.53;6.47;;;;;;;5.16;92.79;99034.17;1827775;77;20959;-59
2022/10/13 00:35:48;;;;;;;8.38;5.08;;;;;;;5.14;92.72;99033.05;1828695;77;20987;-59
2022/10/13 00:38:16;;;;;;;8.23;5.10;;;;;;;5.11;92.75;99030.85;1838271;77;20899;-59
2022/10/13 00:40:49;;;;;;;8.70;4.72;;;;;;;5.10;92.74;99033.23;1826795;77;20834;-58
2022/10/13 00:43:20;;;;;;;9.35;4.58;;;;;;;5.12;92.97;99025.84;1828572;77;21063;-59
2022/10/13 00:45:52;;;;;;;8.33;4.20;;;;;;;5.14;93.04;99026.41;1834478;77;20857;-59
2022/10/13 00:48:26;;;;;;;10.95;4.33;;;;;;;5.14;93.07;99030.91;1835066;77;20876;-59
2022/10/13 00:50:53;;;;;;;7.87;4.00;;;;;;;5.11;93.27;99038.03;1818595;77;20956;-59
2022/10/13 00:53:23;;;;;;;6.67;3.52;;;;;;;5.10;93.49;99029.25;1823276;77;21168;-59
2022/10/13 00:55:50;;;;;;;9.10;4.55;;;;;;;5.11;93.56;99029.52;1810632;77;21221;-59
2022/10/13 00:58:18;;;;;;;11.30;3.85;;;;;;;5.12;93.63;99032.48;1834862;77;20904;-59
2022/10/13 01:00:47;;;;;;;8.43;4.05;;;;;;;5.12;93.72;99027.17;1815833;77;20943;-59
2022/10/13 01:03:18;;;;;;;10.43;3.90;;;;;;;5.12;93.67;99021.86;1824648;77;20877;-59
2022/10/13 01:05:45;;;;;;;8.40;3.75;;;;;;;5.13;93.73;99020.83;1830024;77;20943;-60
2022/10/13 01:08:13;;;;;;;6.60;3.37;;;;;;;5.14;93.82;99018.45;1828873;77;21182;-59
2022/10/13 01:11:07;;;;;;;9.90;3.75;;;;;;;5.17;93.89;99013.20;1823141;77;20911;-59
2022/10/13 01:14:16;;;;;;;8.30;3.42;;;;;;;5.17;93.79;99017.18;1827834;77;20857;-58
2022/10/13 01:16:58;;;;;;;7.83;3.70;;;;;;;5.17;93.61;99011.36;1819440;77;20947;-59
2022/10/13 01:19:57;;;;;;;6.30;3.27;;;;;;;5.14;93.51;99012.32;1839416;77;20955;-58
2022/10/13 01:22:34;;;;;;;8.75;3.67;;;;;;;5.12;93.42;99009.91;1799801;77;21121;-59
2022/10/13 01:25:28;;;;;;;8.00;3.72;;;;;;;5.11;93.32;99008.28;1816712;77;21419;-58
2022/10/13 01:28:06;;;;;;;10.70;3.40;;;;;;;5.11;93.47;99008.28;1834461;77;20907;-59
2022/10/13 01:30:36;;;;;;;6.42;3.50;;;;;;;5.11;93.54;99011.47;1795238;77;20988;-59
2022/10/13 01:33:15;;;;;;;8.03;3.52;;;;;;;5.12;93.56;99007.77;1830018;77;20904;-60
2022/10/13 01:35:56;;;;;;;7.33;3.67;;;;;;;5.12;93.51;99003.78;1832446;77;21237;-59
2022/10/13 01:38:37;;;;;;;5.65;3.50;;;;;;;5.10;93.54;99006.67;1821166;77;20986;-60
2022/10/13 01:41:25;;;;;;;5.97;3.30;;;;;;;5.08;93.51;99010.60;1830974;77;20880;-58
2022/10/13 01:44:04;;;;;;;10.43;3.58;;;;;;;5.06;93.53;99002.87;1838571;77;20915;-59
2022/10/13 01:46:35;;;;;;;6.70;3.40;;;;;;;5.02;93.46;99007.00;1818626;77;20877;-59
2022/10/13 01:49:10;;;;;;;6.20;3.33;;;;;;;4.98;93.39;99001.87;1824608;77;21980;-60
2022/10/13 01:51:38;;;;;;;9.13;3.50;;;;;;;4.97;93.33;99006.88;1795022;77;21130;-58
2022/10/13 01:54:05;;;;;;;6.55;3.08;;;;;;;4.93;93.12;99004.91;1762331;80;20889;-59
2022/10/13 01:56:33;;;;;;;9.08;3.47;;;;;;;4.87;93.12;99007.98;1761294;80;20937;-58
2022/10/13 01:59:07;;;;;;;7.08;3.17;;;;;;;4.82;93.08;99010.00;1828505;77;21075;-58
2022/10/13 02:02:11;;;;;;;10.82;4.00;;;;;;;4.75;93.02;99009.30;1840775;77;21233;-59
2022/10/13 02:04:55;;;;;;;9.00;3.87;;;;;;;4.71;93.29;99002.02;1834934;77;21051;-59
2022/10/13 02:07:39;;;;;;;8.43;3.60;;;;;;;4.72;93.97;99016.89;1818303;77;21629;-58
2022/10/13 02:10:20;;;;;;;6.78;3.60;;;;;;;4.78;94.23;99011.47;1818489;77;20998;-59
2022/10/13 02:12:54;;;;;;;8.35;3.42;;;;;;;4.80;93.95;99015.25;1769029;81;20940;-59
2022/10/13 02:15:28;;;;;;;9.50;4.10;;;;;;;4.76;93.64;99008.75;1824938;77;21111;-59
2022/10/13 02:17:56;;;;;;;;;;;;;;;4.70;93.41;99011.01;1821306;77;20867;-59
2022/10/13 02:20:23;;;;;;;6.55;3.05;;;;;;;4.65;93.15;99007.71;1819426;77;20080;-59
2022/10/13 02:22:58;;;;;;;7.90;3.00;;;;;;;4.58;92.92;99010.16;1840178;77;20923;-59
2022/10/13 02:25:25;;;;;;;6.28;2.98;;;;;;;4.55;92.84;99007.45;1830673;77;20877;-58
2022/10/13 02:27:53;;;;;;;7.05;3.00;;;;;;;4.52;92.77;99008.44;1756282;80;21117;-58
2022/10/13 02:30:23;;;;;;;5.33;2.85;;;;;;;4.48;92.70;99003.27;1818982;77;20958;-59
2022/10/13 02:32:51;;;;;;;10.15;3.25;;;;;;;4.45;92.69;99007.72;1837950;77;20880;-59
2022/10/13 02:35:19;;;;;;;7.92;2.98;;;;;;;4.41;92.64;99006.53;1755805;80;21442;-59
2022/10/13 02:37:47;;;;;;;7.90;3.67;;;;;;;4.35;92.61;99004.80;1821149;77;21403;-60
2022/10/13 02:40:14;;;;;;;6.62;3.15;;;;;;;4.31;92.74;99009.73;1824652;77;21228;-60
2022/10/13 02:42:42;;;;;;;6.33;2.90;;;;;;;4.31;92.79;99003.64;1835211;77;20912;-60
2022/10/13 02:45:10;;;;;;;6.30;3.22;;;;;;;4.32;92.83;99007.89;1839855;77;21009;-60
2022/10/13 02:47:38;;;;;;;11.45;3.98;;;;;;;4.30;92.86;99000.17;1826298;77;20954;-59
2022/10/13 02:50:07;;;;;;;10.30;4.47;;;;;;;4.30;93.05;99002.00;1827999;77;20951;-60
2022/10/13 02:52:33;;;;;;;9.93;4.05;;;;;;;4.31;93.05;99000.98;1831743;77;21442;-59
2022/10/13 02:55:01;;;;;;;9.18;4.05;;;;;;;4.30;93.20;99000.68;1821362;77;20867;-58
2022/10/13 02:57:27;;;;;;;5.60;2.90;;;;;;;4.32;93.36;98999.42;1831533;77;21554;-59
2022/10/13 02:59:56;;;;;;;10.58;3.95;;;;;;;4.34;93.35;99001.84;1827263;77;20863;-58
2022/10/13 03:02:26;;;;;;;10.45;5.33;;;;;;;4.37;93.43;98993.44;1830530;77;21453;-59
2022/10/13 03:04:53;;;;;;;10.30;4.35;;;;;;;4.40;93.45;98999.62;1815900;77;21068;-59
2022/10/13 03:07:20;;;;;;;6.90;3.87;;;;;;;4.42;93.48;98996.23;1818251;77;21034;-59
2022/10/13 03:09:46;;;;;;;11.60;5.42;;;;;;;4.44;93.46;99004.25;1836952;77;21483;-58
2022/10/13 03:12:14;;;;;;;13.40;6.60;;;;;;;4.46;93.57;99005.34;1843545;77;21089;-59
2022/10/13 03:14:41;;;;;;;10.53;5.65;;;;;;;4.48;93.74;99004.59;1829963;77;20837;-58
2022/10/13 03:17:07;;;;;;;14.05;6.50;;;;;;;4.50;93.77;99005.20;1816534;77;21466;-59
2022/10/13 03:19:34;;;;;;;13.08;6.60;;;;;;;4.50;93.73;99004.66;1827909;77;20860;-59
2022/10/13 03:22:00;;;;;;;7.85;4.47;;;;;;;4.47;93.63;99002.99;1819449;77;20932;-58
2022/10/13 03:24:27;;;;;;;7.00;3.90;;;;;;;4.40;93.70;99000.95;1837450;77;20952;-59
2022/10/13 03:26:54;;;;;;;8.73;4.37;;;;;;;4.40;93.98;99000.95;1817267;77;21352;-59
2022/10/13 03:29:22;;;;;;;9.48;4.40;;;;;;;4.44;94.07;99001.59;1831358;77;21103;-59
2022/10/13 03:31:48;;;;;;;9.03;3.80;;;;;;;4.49;94.02;99003.57;1835555;77;20930;-59
2022/10/13 03:34:19;;;;;;;8.70;3.70;;;;;;;4.50;94.18;99002.55;1827808;77;21092;-58
2022/10/13 03:36:46;;;;;;;7.17;3.30;;;;;;;4.53;94.39;99000.23;1818799;77;21400;-59
2022/10/13 03:39:12;;;;;;;9.20;3.58;;;;;;;4.54;94.54;98999.72;1816403;77;20895;-58
2022/10/13 03:41:39;;;;;;;10.35;3.98;;;;;;;4.56;94.78;98996.32;1816661;77;21398;-59
2022/10/13 03:44:06;;;;;;;12.15;4.60;;;;;;;4.58;94.85;98994.24;1835220;77;20865;-59
2022/10/13 03:46:34;;;;;;;9.85;3.90;;;;;;;4.60;94.83;98994.83;1826993;77;21305;-59
2022/10/13 03:49:01;;;;;;;8.88;3.77;;;;;;;4.58;94.72;98986.28;1832642;77;20909;-60
2022/10/13 03:51:31;;;;;;;9.70;3.58;;;;;;;4.56;94.69;98993.67;1817839;77;21054;-59
2022/10/13 03:53:57;;;;;;;8.55;3.10;;;;;;;4.57;94.81;98990.78;1823811;77;22008;-59
2022/10/13 03:56:25;;;;;;;8.15;3.60;;;;;;;4.59;94.92;98997.20;1815787;77;20998;-59
2022/10/13 03:58:57;;;;;;;8.30;3.35;;;;;;;4.60;95.00;98992.17;1818585;77;21050;-59
2022/10/13 04:01:26;;;;;;;10.25;3.47;;;;;;;4.61;95.30;98989.82;1796934;77;20919;-59
2022/10/13 04:03:54;;;;;;;8.60;3.80;;;;;;;4.63;95.51;98991.72;1827446;77;21449;-58
2022/10/13 04:06:22;;;;;;;9.73;3.77;;;;;;;4.64;95.75;98997.34;1815957;77;21138;-59
2022/10/13 04:08:51;;;;;;;8.30;3.20;;;;;;;4.64;95.85;98994.68;1823264;77;20936;-59
2022/10/13 04:11:19;;;;;;;5.80;3.02;;;;;;;4.67;95.90;98995.53;1830709;77;21451;-59
2022/10/13 04:13:49;;;;;;;8.45;3.12;;;;;;;4.70;95.98;98991.10;1818635;77;20931;-59
2022/10/13 04:16:19;;;;;;;8.93;3.37;;;;;;;4.74;96.00;98988.27;1825096;77;21391;-59
2022/10/13 04:18:52;;;;;;;8.00;3.27;;;;;;;4.78;95.68;98989.45;1833186;77;21198;-59
2022/10/13 04:21:19;;;;;;;6.70;3.92;;;;;;;4.71;95.33;98986.88;1815890;77;20962;-59
2022/10/13 04:23:46;;;;;;;7.55;3.70;;;;;;;4.63;94.86;98985.09;1827741;77;21001;-58
2022/10/13 04:26:19;;;;;;;9.13;4.12;;;;;;;4.55;94.80;98990.20;1825661;77;20947;-59
2022/10/13 04:28:47;;;;;;;13.43;3.77;;;;;;;4.50;94.90;98981.33;1830377;77;20898;-60
2022/10/13 04:31:14;;;;;;;9.90;3.70;;;;;;;4.49;94.98;98988.98;1832314;77;21077;-59
2022/10/13 04:33:43;;;;;;;11.48;4.17;;;;;;;4.45;94.73;98979.33;1836664;77;20956;-59
2022/10/13 04:36:11;;;;;;;11.22;4.10;;;;;;;4.41;94.57;98983.47;1832796;77;20868;-59
2022/10/13 04:38:39;;;;;;;8.48;4.00;;;;;;;4.39;94.41;98991.36;1837585;77;20956;-59
2022/10/13 04:41:07;;;;;;;12.03;4.05;;;;;;;4.35;94.31;98990.20;1830422;77;20952;-59
2022/10/13 04:43:34;;;;;;;10.20;4.45;;;;;;;4.30;94.08;98994.86;1829496;77;21226;-59
2022/10/13 04:46:03;;;;;;;9.38;5.03;;;;;;;4.25;94.01;98992.59;1830834;77;21033;-59
2022/10/13 04:48:29;;;;;;;15.38;7.55;;;;;;;4.20;94.03;98991.12;1822631;77;20944;-59
2022/10/13 04:51:10;;;;;;;17.30;8.93;;;;;;;4.15;93.93;98992.61;1821323;77;20970;-60
2022/10/13 04:53:36;;;;;;;22.70;12.47;;;;;;;4.10;93.93;98997.77;1815981;77;20899;-59
2022/10/13 04:56:08;;;;;;;30.20;19.30;;;;;;;4.06;94.02;98999.27;1827979;77;21132;-60
2022/10/13 04:58:36;;;;;;;75.55;50.90;;;;;;;4.04;94.13;99000.01;1829264;77;21050;-60
2022/10/13 05:01:04;;;;;;;41.98;29.42;;;;;;;4.05;94.16;98994.98;1828726;77;21375;-59
2022/10/13 05:03:32;;;;;;;24.02;15.50;;;;;;;4.05;94.13;98997.63;1840020;77;20923;-60
2022/10/13 05:06:00;;;;;;;32.28;24.47;;;;;;;4.07;94.16;98989.47;1835894;77;20988;-59
2022/10/13 05:08:26;;;;;;;68.52;60.12;;;;;;;4.08;94.11;98998.52;1819922;77;21231;-60
2022/10/13 05:10:57;;;;;;;19.40;12.78;;;;;;;4.08;94.15;98997.20;1831497;77;20907;-60
2022/10/13 05:13:25;;;;;;;16.87;8.38;;;;;;;4.04;94.31;99001.34;1820709;77;21847;-60
2022/10/13 05:15:52;;;;;;;25.80;8.83;;;;;;;4.06;94.55;98997.94;1833058;77;20991;-59
2022/10/13 05:18:21;;;;;;;15.43;8.03;;;;;;;4.10;94.65;99002.27;1762949;81;20947;-58
2022/10/13 05:20:48;;;;;;;21.17;8.30;;;;;;;4.09;94.60;99001.48;1744128;80;21239;-59
2022/10/13 05:23:16;;;;;;;17.60;8.93;;;;;;;4.12;94.69;99001.01;1751871;80;21367;-59
2022/10/13 05:25:42;;;;;;;16.93;8.05;;;;;;;4.15;94.78;99003.22;1769517;81;20916;-60
2022/10/13 05:28:11;;;;;;;18.65;9.08;;;;;;;4.21;95.08;99006.02;1816517;77;21457;-58
2022/10/13 05:30:39;;;;;;;18.27;8.78;;;;;;;4.28;95.31;99001.42;1841044;77;20896;-59
2022/10/13 05:33:06;;;;;;;25.25;12.25;;;;;;;4.36;95.42;99004.56;1831533;77;21111;-59
2022/10/13 05:35:34;;;;;;;35.85;17.52;;;;;;;4.45;95.53;99001.09;1821105;77;21046;-58
2022/10/13 05:38:01;;;;;;;35.03;19.10;;;;;;;4.52;95.57;98997.82;1834911;77;21062;-58
2022/10/13 05:40:28;;;;;;;22.65;12.93;;;;;;;4.59;95.65;99003.84;1836868;77;21049;-59
2022/10/13 05:42:57;;;;;;;26.23;13.90;;;;;;;4.66;95.88;99013.29;1831161;77;20844;-59
2022/10/13 05:45:23;;;;;;;34.23;21.82;;;;;;;4.78;96.22;99007.49;1815900;77;21203;-59
2022/10/13 05:47:50;;;;;;;20.77;12.90;;;;;;;4.91;96.36;99001.17;1818476;77;20925;-60
2022/10/13 05:50:17;;;;;;;22.98;11.15;;;;;;;5.02;96.44;99003.02;1825369;77;21389;-59
2022/10/13 05:52:44;;;;;;;20.82;11.38;;;;;;;5.11;96.48;98996.33;1822321;77;20981;-60
2022/10/13 05:55:12;;;;;;;20.85;11.93;;;;;;;5.20;96.49;99000.79;1835190;77;21549;-59
2022/10/13 05:57:41;;;;;;;23.57;12.53;;;;;;;5.26;96.54;98995.36;1828612;77;21151;-59
2022/10/13 06:00:12;;;;;;;24.95;12.37;;;;;;;5.35;96.64;98993.96;1825901;77;20963;-58
2022/10/13 06:02:44;;;;;;;21.40;11.57;;;;;;;5.44;96.76;99000.53;1820715;77;20872;-59
2022/10/13 06:05:15;;;;;;;20.15;10.28;;;;;;;5.54;96.83;98999.44;1813508;77;21456;-59
2022/10/13 06:07:43;;;;;;;19.12;10.13;;;;;;;5.66;96.88;98995.94;1813023;77;21014;-58
2022/10/13 06:10:10;;;;;;;16.48;8.85;;;;;;;5.77;96.96;99004.43;1831952;77;21086;-59
2022/10/13 06:12:37;;;;;;;22.40;8.80;;;;;;;5.88;96.91;99007.61;1817662;77;20980;-59
2022/10/13 06:15:05;;;;;;;22.58;9.63;;;;;;;6.00;96.95;99009.20;1840821;77;20872;-58
2022/10/13 06:17:37;;;;;;;19.62;10.60;;;;;;;6.15;96.87;99008.66;1835147;77;20923;-59
2022/10/13 06:20:06;;;;;;;24.02;11.22;;;;;;;6.29;96.83;99011.33;1835542;77;21082;-59
2022/10/13 06:22:39;;;;;;;33.10;11.40;;;;;;;6.44;96.71;99008.95;1805787;79;21176;-59
2022/10/13 06:25:10;;;;;;;21.15;12.15;;;;;;;6.59;96.56;99007.91;1811529;77;21427;-59
2022/10/13 06:27:40;;;;;;;22.07;11.68;;;;;;;6.75;96.31;99005.78;1783494;79;20970;-58
2022/10/13 06:30:10;;;;;;;24.65;12.25;;;;;;;6.93;96.25;99011.39;1793781;79;21032;-59
2022/10/13 06:32:39;;;;;;;23.07;10.65;;;;;;;7.12;96.16;99018.61;1791027;78;21189;-59
2022/10/13 06:35:08;;;;;;;20.88;8.90;;;;;;;7.33;96.03;99016.53;1785295;79;21127;-58
2022/10/13 06:37:35;;;;;;;20.12;7.25;;;;;;;7.56;95.70;99013.66;1797167;79;21120;-59
2022/10/13 06:40:06;;;;;;;16.02;6.58;;;;;;;7.78;95.11;99010.50;1799517;79;20963;-58
2022/10/13 06:42:33;;;;;;;13.68;6.12;;;;;;;8.02;94.39;99017.73;1808641;79;20900;-60
2022/10/13 06:45:10;;;;;;;16.35;6.60;;;;;;;8.24;93.48;99012.66;1790727;79;21062;-58
2022/10/13 06:47:39;;;;;;;10.25;5.65;;;;;;;8.48;92.70;99016.42;1806411;79;21130;-58
2022/10/13 06:50:07;;;;;;;10.15;4.67;;;;;;;8.67;91.59;99012.31;1786628;79;21027;-59
2022/10/13 06:52:36;;;;;;;12.93;6.15;;;;;;;8.86;90.35;99008.22;1793923;79;21399;-59
2022/10/13 06:55:04;;;;;;;10.35;4.58;;;;;;;9.03;88.96;99015.58;1799427;79;21019;-59
2022/10/13 06:57:32;;;;;;;8.90;4.15;;;;;;;9.19;88.09;99010.63;1801005;78;21134;-58
2022/10/13 07:00:01;;;;;;;10.55;4.10;;;;;;;9.38;86.97;99013.16;1804813;77;21101;-58
2022/10/13 07:02:28;;;;;;;9.75;3.72;;;;;;;9.54;85.52;99014.05;1805674;77;21512;-59
2022/10/13 07:04:55;;;;;;;10.43;4.05;;;;;;;9.69;84.37;99007.99;1819728;77;21002;-61
2022/10/13 07:07:21;;;;;;;9.40;4.20;;;;;;;9.83;83.39;99011.80;1803143;78;21629;-59
2022/10/13 07:09:49;;;;;;;8.95;4.10;;;;;;;9.97;82.59;99014.28;1807926;77;21098;-59
2022/10/13 07:12:16;;;;;;;9.60;4.05;;;;;;;10.09;82.10;99005.50;1812883;78;21184;-58
2022/10/13 07:14:44;;;;;;;13.13;4.75;;;;;;;10.21;81.12;99008.79;1803604;78;20943;-59
2022/10/13 07:17:11;;;;;;;8.60;4.67;;;;;;;10.30;79.86;99007.20;1811149;77;20942;-59
2022/10/13 07:19:38;;;;;;;11.28;4.97;;;;;;;10.40;78.76;99005.09;1810308;79;21600;-58
2022/10/13 07:22:05;;;;;;;11.43;4.70;;;;;;;10.50;77.93;99001.91;1819298;77;21042;-59
2022/10/13 07:24:34;;;;;;;10.85;3.50;;;;;;;10.60;77.66;98996.55;1822495;77;21277;-59
2022/10/13 07:27:05;;;;;;;9.23;3.92;;;;;;;10.73;77.37;98994.70;1818157;78;21034;-59
2022/10/13 07:29:32;;;;;;;9.03;3.35;;;;;;;10.88;76.83;99004.08;1821818;78;21046;-59
2022/10/13 07:31:58;;;;;;;8.85;3.00;;;;;;;11.04;75.86;98997.39;1805960;78;21048;-59
2022/10/13 07:34:25;;;;;;;5.97;2.92;;;;;;;11.18;74.31;99000.61;1811062;78;21135;-60
2022/10/13 07:36:53;;;;;;;9.05;3.33;;;;;;;11.29;73.32;99002.73;1798015;78;20992;-59
2022/10/13 07:39:20;;;;;;;10.63;3.60;;;;;;;11.41;73.22;99000.03;1800082;77;21046;-58
2022/10/13 07:41:47;;;;;;;8.45;3.35;;;;;;;11.54;72.45;98999.46;1800928;78;21438;-59
2022/10/13 07:44:14;;;;;;;7.47;2.83;;;;;;;11.66;72.21;98999.16;1780709;78;21070;-59
2022/10/13 07:46:46;;;;;;;9.85;3.27;;;;;;;11.77;71.30;99000.79;1755103;79;21112;-58
2022/10/13 07:49:12;;;;;;;8.73;3.02;;;;;;;11.86;70.33;99001.83;1781648;79;22813;-58
2022/10/13 07:51:39;;;;;;;9.05;2.67;;;;;;;11.93;69.62;99001.53;1797452;78;21043;-58
2022/10/13 07:54:07;;;;;;;8.40;2.33;;;;;;;12.00;69.18;98993.45;1810671;77;21113;-58
2022/10/13 07:56:36;;;;;;;8.50;2.72;;;;;;;12.07;67.10;99000.67;1807517;77;20996;-60
2022/10/13 07:59:04;;;;;;;6.87;3.00;;;;;;;12.17;66.28;98996.61;1793972;78;21110;-59
2022/10/13 08:01:32;;;;;;;6.62;2.50;;;;;;;12.25;65.08;99000.04;1795407;78;21104;-61
2022/10/13 08:03:59;;;;;;;5.12;2.25;;;;;;;12.34;64.15;99002.41;1808119;78;21072;-60
2022/10/13 08:06:26;;;;;;;7.35;3.00;;;;;;;12.42;63.95;98997.53;1805220;77;21029;-60
2022/10/13 08:08:54;;;;;;;11.35;2.65;;;;;;;12.48;63.58;98997.25;1792888;78;21523;-59
2022/10/13 08:11:20;;;;;;;8.58;2.60;;;;;;;12.58;62.91;98993.66;1809355;77;21074;-59
2022/10/13 08:13:48;;;;;;;14.70;3.25;;;;;;;12.65;63.11;98996.84;1791253;79;21079;-58
2022/10/13 08:16:18;;;;;;;9.90;2.20;;;;;;;12.72;62.74;98990.08;1803201;77;21219;-58
2022/10/13 08:18:51;;;;;;;6.78;2.62;;;;;;;12.76;61.86;98990.34;1817078;77;21066;-59
2022/10/13 08:21:19;;;;;;;9.10;2.22;;;;;;;12.74;61.27;98994.63;1812842;77;21051;-59
2022/10/13 08:23:46;;;;;;;5.08;2.25;;;;;;;12.70;59.94;98995.47;1804946;78;20987;-59
2022/10/13 08:26:19;;;;;;;8.58;2.55;;;;;;;12.63;59.25;98994.98;1819059;77;21233;-59
2022/10/13 08:28:46;;;;;;;11.53;2.40;;;;;;;12.58;58.85;98997.16;1803580;77;21002;-59
2022/10/13 08:31:13;;;;;;;5.42;2.35;;;;;;;12.54;58.92;98990.75;1809406;77;21523;-59
2022/10/13 08:33:49;;;;;;;5.25;2.20;;;;;;;12.53;58.78;98997.19;1750121;79;20973;-59
2022/10/13 08:36:20;;;;;;;5.95;2.05;;;;;;;12.54;59.52;98992.63;1726113;80;21165;-59
2022/10/13 08:38:48;;;;;;;10.65;2.80;;;;;;;12.58;59.55;98986.95;1756555;80;21111;-60
2022/10/13 08:41:19;;;;;;;7.17;2.52;;;;;;;12.62;58.92;98992.05;1758491;79;21043;-60
2022/10/13 08:43:52;;;;;;;9.60;2.55;;;;;;;12.65;58.96;98990.94;1804451;78;21011;-60
2022/10/13 08:46:29;;;;;;;5.90;2.30;;;;;;;12.69;58.61;98989.84;1793552;79;21109;-60
2022/10/13 08:48:56;;;;;;;7.75;2.22;;;;;;;12.72;58.25;98991.42;1818963;77;21050;-58
2022/10/13 08:51:26;;;;;;;6.35;2.40;;;;;;;12.74;58.98;98987.13;1802892;77;21764;-58
2022/10/13 08:53:54;;;;;;;4.95;2.33;;;;;;;12.80;58.47;98987.34;1797695;78;21061;-59
2022/10/13 08:56:27;;;;;;;3.90;2.22;;;;;;;12.86;58.55;98986.20;1813906;77;20960;-60
2022/10/13 08:58:56;;;;;;;9.80;2.65;;;;;;;12.92;58.06;98987.79;1757064;80;21059;-59
2022/10/13 09:01:36;;;;;;;9.43;2.72;;;;;;;12.98;57.80;98986.66;1805648;77;21049;-59
2022/10/13 09:04:35;;;;;;;5.72;2.33;;;;;;;13.13;58.40;98987.91;1753916;80;21110;-59
2022/10/13 09:07:16;;;;;;;7.58;2.77;;;;;;;13.31;58.34;98986.39;1752666;81;21525;-60
2022/10/13 09:09:51;;;;;;;5.53;2.30;;;;;;;13.48;57.63;98983.53;1753217;80;20915;-60
2022/10/13 09:12:23;;;;;;;5.03;2.25;;;;;;;13.62;56.89;98988.50;1740997;80;21488;-59
2022/10/13 09:15:07;;;;;;;6.58;2.30;;;;;;;13.74;56.05;98988.10;1786799;78;21023;-59
2022/10/13 09:17:47;;;;;;;6.70;2.40;;;;;;;13.76;55.04;98982.42;1779986;79;39327;-60
2022/10/13 09:20:26;;;;;;;5.65;2.37;;;;;;;13.76;54.55;98979.73;1786231;77;20979;-60
2022/10/13 09:23:18;;;;;;;7.37;2.90;;;;;;;13.69;54.58;98979.54;1818334;77;21054;-60
2022/10/13 09:25:51;;;;;;;6.67;2.65;;;;;;;13.63;55.06;98986.08;1793017;79;21047;-58
2022/10/13 09:28:28;;;;;;;5.58;2.80;;;;;;;13.58;54.90;98979.41;1800007;79;21043;-59
2022/10/13 09:31:24;;;;;;;6.85;2.42;;;;;;;13.55;55.27;98975.92;1807833;77;21222;-59
2022/10/13 09:34:17;;;;;;;;;;;;;;;13.63;55.27;98978.00;1835797;77;21050;-59
2022/10/13 09:37:03;;;;;;;7.90;2.55;;;;;;;13.71;54.75;98977.89;1838862;77;20422;-59
2022/10/13 09:39:32;;;;;;;6.35;2.17;;;;;;;13.69;54.70;98978.73;1829718;77;21018;-63
2022/10/13 09:42:32;;;;;;;8.88;3.10;;;;;;;13.79;55.17;98969.73;1828009;77;21440;-59
2022/10/13 09:45:16;;;;;;;10.03;3.42;;;;;;;13.90;55.56;98971.21;1835508;77;21355;-60
2022/10/13 09:48:04;;;;;;;5.90;2.33;;;;;;;14.00;55.39;98970.56;1815587;77;20919;-59
2022/10/13 09:50:33;;;;;;;7.05;3.12;;;;;;;14.03;53.99;98967.83;1824530;77;21425;-60
2022/10/13 09:53:31;;;;;;;9.25;2.70;;;;;;;13.99;53.70;98965.47;1825553;77;21026;-60
2022/10/13 09:56:43;;;;;;;6.95;2.60;;;;;;;14.03;52.96;98971.34;1788929;79;20948;-59
2022/10/13 09:59:39;;;;;;;12.07;3.17;;;;;;;14.07;53.21;98960.77;1830921;77;21215;-60
2022/10/13 10:02:30;;;;;;;9.25;3.52;;;;;;;14.22;52.94;98949.80;1831564;77;20900;-58
2022/10/13 10:05:01;;;;;;;6.53;3.02;;;;;;;14.30;53.04;98958.05;1814412;77;20906;-59
2022/10/13 10:07:31;;;;;;;10.53;3.52;;;;;;;14.39;52.67;98944.72;1804187;77;20985;-59
2022/10/13 10:10:25;;;;;;;8.53;3.72;;;;;;;14.40;52.85;98940.94;1832361;77;21153;-60
2022/10/13 10:12:53;;;;;;;7.85;3.83;;;;;;;14.42;53.61;98936.06;1831153;77;21975;-59
2022/10/13 10:15:35;;;;;;;10.60;4.47;;;;;;;14.48;53.74;98936.25;1809711;77;21046;-59
2022/10/13 10:18:07;;;;;;;8.68;3.98;;;;;;;14.56;53.28;98931.53;1823811;77;20971;-60
2022/10/13 10:21:00;;;;;;;10.10;3.52;;;;;;;14.59;52.65;98931.49;1813087;77;21086;-60
2022/10/13 10:23:44;;;;;;;7.17;3.20;;;;;;;14.57;52.70;98930.98;1823478;77;21587;-58
2022/10/13 10:26:29;;;;;;;6.72;3.72;;;;;;;14.42;51.60;98932.55;1823623;77;21215;-59
2022/10/13 10:29:05;;;;;;;7.30;3.22;;;;;;;14.18;51.80;98933.94;1820674;77;20885;-60
2022/10/13 10:31:49;;;;;;;8.40;3.55;;;;;;;14.07;52.53;98931.14;1820914;77;21094;-60
2022/10/13 10:35:10;;;;;;;10.08;3.50;;;;;;;14.19;52.53;98928.82;1824572;77;21117;-60
2022/10/13 10:38:26;;;;;;;10.40;3.90;;;;;;;14.32;51.63;98921.38;1832638;77;21030;-59
2022/10/13 10:41:34;;;;;;;11.12;4.00;;;;;;;14.36;51.37;98917.83;1833717;77;21219;-59
2022/10/13 10:44:16;;;;;;;8.80;5.65;;;;;;;14.42;50.56;98916.38;1816661;77;20879;-58
2022/10/13 10:46:47;;;;;;;7.45;3.60;;;;;;;14.52;50.96;98914.35;1833615;77;20928;-61
2022/10/13 10:49:30;;;;;;;8.03;4.47;;;;;;;14.62;50.61;98910.16;1810285;77;20979;-60
2022/10/13 10:51:59;;;;;;;22.45;16.32;;;;;;;14.59;50.20;98909.39;1815379;78;20875;-60
2022/10/13 10:54:41;;;;;;;13.03;5.00;;;;;;;14.57;50.34;98908.88;1815863;78;21425;-59
2022/10/13 10:57:28;;;;;;;8.58;4.05;;;;;;;14.52;50.33;98908.95;1809727;77;20852;-59
2022/10/13 11:00:14;;;;;;;8.95;5.70;;;;;;;14.43;50.40;98899.94;1815745;78;20938;-60
2022/10/13 11:03:01;;;;;;;9.63;4.35;;;;;;;14.31;50.69;98896.89;1812692;78;21515;-60
2022/10/13 11:05:58;;;;;;;8.13;4.08;;;;;;;14.19;51.06;98895.14;1817985;78;21020;-59
2022/10/13 11:08:45;;;;;;;10.10;4.12;;;;;;;14.11;51.13;98897.94;1814298;78;21898;-60
2022/10/13 11:11:30;;;;;;;9.25;4.55;;;;;;;14.02;51.40;98892.14;1818005;78;20869;-59
2022/10/13 11:14:03;;;;;;;7.30;4.83;;;;;;;13.95;51.49;98894.40;1816766;78;21068;-61
2022/10/13 11:17:00;;;;;;;9.73;4.12;;;;;;;13.86;51.95;98896.14;1815486;78;20885;-60
2022/10/13 11:22:17;;;;;;;5.67;3.40;;;;;;;14.00;51.72;98890.30;1810462;78;21215;-60
2022/10/13 11:24:51;;;;;;;9.45;3.58;;;;;;;14.31;51.79;98891.50;1815275;78;20876;-60
2022/10/13 11:27:29;;;;;;;9.90;3.77;;;;;;;14.72;50.78;98889.75;1814131;78;20851;-62
2022/10/13 11:29:58;;;;;;;9.60;4.33;;;;;;;15.06;50.56;98888.89;1815741;78;21382;-59
2022/10/13 11:35:24;;;;;;;12.47;4.67;;;;;;;15.07;49.56;98885.08;1816669;78;21165;-59
2022/10/13 11:38:06;;;;;;;8.45;4.22;;;;;;;14.93;50.07;98884.25;1808650;78;21462;-58
2022/10/13 11:41:15;;;;;;;13.13;4.22;;;;;;;14.79;50.65;98880.73;1814419;78;21474;-59
2022/10/13 11:44:02;;;;;;;8.85;3.80;;;;;;;14.81;50.08;98879.91;1807302;78;21030;-61
2022/10/13 11:47:12;;;;;;;8.88;3.67;;;;;;;15.04;49.83;98872.75;1811879;78;21006;-63
2022/10/13 11:50:01;;;;;;;9.10;3.70;;;;;;;15.41;49.46;98877.16;1816950;78;20912;-60
2022/10/13 11:52:53;;;;;;;9.65;3.60;;;;;;;15.59;48.24;98868.20;1768060;79;21042;-59
2022/10/13 11:55:54;;;;;;;8.28;3.95;;;;;;;15.46;48.31;98871.70;1804601;79;20979;-60
2022/10/13 11:58:29;;;;;;;13.32;3.95;;;;;;;15.27;48.82;98865.56;1790996;79;21046;-59
2022/10/13 12:01:05;;;;;;;7.90;3.70;;;;;;;15.03;49.32;98869.25;1800144;78;21474;-60
2022/10/13 12:03:38;;;;;;;8.50;4.30;;;;;;;14.92;49.92;98867.84;1798481;78;21027;-59
2022/10/13 12:06:21;;;;;;;6.45;3.55;;;;;;;14.78;50.74;98862.96;1800004;78;21103;-59
2022/10/13 12:08:49;;;;;;;15.63;9.90;;;;;;;14.64;50.21;98855.38;1813028;79;21672;-60
2022/10/13 12:11:31;;;;;;;11.88;8.58;;;;;;;14.51;49.99;98861.52;1824317;77;21311;-59
2022/10/13 12:14:04;;;;;;;9.43;6.20;;;;;;;14.37;50.33;98854.73;1805519;78;21129;-60